createdAt,value
2023-03-23T15:58:57.845Z,23.05
2023-03-23T16:01:26.455Z,13.02
2023-03-23T16:03:53.454Z,8.48
2023-03-23T16:06:25.324Z,7.03
2023-03-23T16:08:55.149Z,10.48
2023-03-23T16:11:22.515Z,12.10
2023-03-23T16:13:49.297Z,6.90
2023-03-23T16:16:24.328Z,6.97
2023-03-23T16:18:51.100Z,9.35
2023-03-23T16:21:17.967Z,7.60
2023-03-23T16:23:46.493Z,16.02
2023-03-23T16:26:14.573Z,8.43
2023-03-23T16:28:41.910Z,15.77
2023-03-23T16:31:08.789Z,16.80
2023-03-23T16:33:35.621Z,18.40
2023-03-23T16:36:02.964Z,26.55
2023-03-23T16:38:29.774Z,12.52
2023-03-23T16:40:56.505Z,20.50
2023-03-23T16:43:23.297Z,15.40
2023-03-23T16:45:50.491Z,31.40
2023-03-23T16:48:17.342Z,33.30
2023-03-23T16:50:44.581Z,35.03
2023-03-23T16:53:11.802Z,43.22
2023-03-23T16:55:39.014Z,40.92
2023-03-23T16:58:16.492Z,35.25
2023-03-23T17:00:45.014Z,32.42
2023-03-23T17:03:13.302Z,25.70
2023-03-23T17:05:40.851Z,37.28
2023-03-23T17:08:07.790Z,32.15
2023-03-23T17:10:34.591Z,27.88
2023-03-23T17:13:01.824Z,27.33
2023-03-23T17:15:28.678Z,29.25
2023-03-23T17:17:55.575Z,35.95
2023-03-23T17:20:22.673Z,45.63
2023-03-23T17:22:49.491Z,26.70
2023-03-23T17:25:16.461Z,30.58
2023-03-23T17:27:43.309Z,46.85
2023-03-23T17:30:10.919Z,71.47
2023-03-23T17:32:37.883Z,64.53
2023-03-23T17:35:05.540Z,61.58
2023-03-23T17:37:32.642Z,29.50
2023-03-23T17:39:59.425Z,31.10
2023-03-23T17:42:26.993Z,27.00
2023-03-23T17:44:53.953Z,37.08
2023-03-23T17:47:21.002Z,27.02
2023-03-23T17:49:48.098Z,32.22
2023-03-23T17:52:15.025Z,27.13
2023-03-23T17:54:42.073Z,31.52
2023-03-23T17:57:09.154Z,41.25
2023-03-23T17:59:36.360Z,28.25
2023-03-23T18:02:03.492Z,36.83
2023-03-23T18:04:30.675Z,30.05
2023-03-23T18:06:57.846Z,28.73
2023-03-23T18:09:25.248Z,28.05
2023-03-23T18:11:52.162Z,35.00
2023-03-23T18:14:19.108Z,43.88
2023-03-23T18:16:46.239Z,36.00
2023-03-23T18:19:13.101Z,33.17
2023-03-23T18:21:39.904Z,51.63
2023-03-23T18:24:07.956Z,35.15
2023-03-23T18:26:34.853Z,27.40
2023-03-23T18:29:01.726Z,27.20
2023-03-23T18:31:28.865Z,21.42
2023-03-23T18:33:55.785Z,28.88
2023-03-23T18:36:24.980Z,25.08
2023-03-23T18:38:53.931Z,27.48
2023-03-23T18:41:20.880Z,31.13
2023-03-23T18:43:47.905Z,34.55
2023-03-23T18:46:14.879Z,32.60
2023-03-23T18:48:41.708Z,31.67
2023-03-23T18:51:09.547Z,37.53
2023-03-23T18:53:36.310Z,36.03
2023-03-23T18:56:13.920Z,26.35
2023-03-23T18:58:41.009Z,28.38
2023-03-23T19:01:10.456Z,23.77
2023-03-23T19:03:37.731Z,20.58
2023-03-23T19:06:04.900Z,28.98
2023-03-23T19:08:31.855Z,22.13
2023-03-23T19:11:01.005Z,25.88
2023-03-23T19:13:31.566Z,28.13
2023-03-23T19:15:58.466Z,31.13
2023-03-23T19:18:25.698Z,24.50
2023-03-23T19:21:13.727Z,28.23
2023-03-23T19:23:41.460Z,34.20
2023-03-23T19:26:08.403Z,29.85
2023-03-23T19:31:05.548Z,31.17
2023-03-23T19:33:32.335Z,28.85
2023-03-23T19:36:09.087Z,29.70
2023-03-23T19:38:38.394Z,42.20
2023-03-23T19:41:06.392Z,55.95
2023-03-23T19:43:33.785Z,36.60
2023-03-23T19:46:00.833Z,34.65
2023-03-23T19:48:28.792Z,44.72
2023-03-23T19:50:56.319Z,39.03
2023-03-23T19:53:23.542Z,55.53
2023-03-23T19:55:50.499Z,49.42
2023-03-23T19:58:17.539Z,31.92
2023-03-23T20:00:45.259Z,36.47
2023-03-23T20:03:12.655Z,31.05
2023-03-23T20:05:40.729Z,29.20
2023-03-23T20:08:09.120Z,32.05
2023-03-23T20:10:36.386Z,35.78
2023-03-23T20:13:04.378Z,30.15
2023-03-23T20:15:32.027Z,39.13
2023-03-23T20:17:59.198Z,35.78
2023-03-23T20:20:26.509Z,47.42
2023-03-23T20:22:54.511Z,30.58
2023-03-23T20:25:23.426Z,37.13
2023-03-23T20:27:50.645Z,23.45
2023-03-23T20:30:18.793Z,21.67
2023-03-23T20:32:46.604Z,19.35
2023-03-23T20:35:14.848Z,23.17
2023-03-23T20:37:42.139Z,20.25
2023-03-23T20:40:11.668Z,24.73
2023-03-23T20:42:38.887Z,22.58
2023-03-23T20:45:06.306Z,26.23
2023-03-23T20:47:33.201Z,23.77
2023-03-23T20:50:00.210Z,32.03
2023-03-23T20:52:27.049Z,23.00
2023-03-23T20:54:54.886Z,20.42
2023-03-23T20:57:22.465Z,23.20
2023-03-23T20:59:50.809Z,24.67
2023-03-23T21:02:18.319Z,21.98
2023-03-23T21:04:45.283Z,27.60
2023-03-23T21:07:13.142Z,16.45
2023-03-23T21:09:41.046Z,17.45
2023-03-23T21:12:09.273Z,22.30
2023-03-23T21:14:37.278Z,18.95
2023-03-23T21:17:04.855Z,18.35
2023-03-23T21:19:32.540Z,17.73
2023-03-23T21:21:59.815Z,31.10
2023-03-23T21:24:28.384Z,27.80
2023-03-23T21:26:56.756Z,29.13
2023-03-23T21:29:24.412Z,25.73
2023-03-23T21:31:57.780Z,27.92
2023-03-23T21:34:32.033Z,23.77
2023-03-23T21:36:58.991Z,31.27
2023-03-23T21:39:26.342Z,22.83
2023-03-23T21:41:53.175Z,18.73
2023-03-23T21:44:20.144Z,14.68
2023-03-23T21:46:46.944Z,16.15
2023-03-23T21:49:14.404Z,18.70
2023-03-23T21:51:41.714Z,21.60
2023-03-23T21:54:09.206Z,27.17
2023-03-23T21:56:36.843Z,19.85
2023-03-23T21:59:04.707Z,15.55
2023-03-23T22:01:31.656Z,16.45
2023-03-23T22:03:58.639Z,16.67
2023-03-23T22:06:28.559Z,16.10
2023-03-23T22:08:55.974Z,18.10
2023-03-23T22:11:27.072Z,15.98
2023-03-23T22:13:54.689Z,22.50
2023-03-23T22:16:21.847Z,16.40
2023-03-23T22:18:49.408Z,17.13
2023-03-23T22:21:16.814Z,14.70
2023-03-23T22:23:44.352Z,14.82
2023-03-23T22:26:12.115Z,20.58
2023-03-23T22:28:39.192Z,14.35
2023-03-23T22:31:18.651Z,15.90
2023-03-23T22:33:46.156Z,14.30
2023-03-23T22:36:13.152Z,15.43
2023-03-23T22:38:41.530Z,14.70
2023-03-23T22:41:08.725Z,11.50
2023-03-23T22:43:36.055Z,11.50
2023-03-23T22:46:03.736Z,14.13
2023-03-23T22:48:30.973Z,11.52
2023-03-23T22:50:58.495Z,11.90
2023-03-23T22:53:25.957Z,21.88
2023-03-23T22:55:54.535Z,12.55
2023-03-23T22:58:21.367Z,10.00
2023-03-23T23:00:49.645Z,15.73
2023-03-23T23:03:16.755Z,11.63
2023-03-23T23:05:45.191Z,10.35
2023-03-23T23:08:13.515Z,13.02
2023-03-23T23:10:42.211Z,11.23
2023-03-23T23:13:09.351Z,11.48
2023-03-23T23:15:36.858Z,11.60
2023-03-23T23:18:04.958Z,13.00
2023-03-23T23:20:33.286Z,11.13
2023-03-23T23:23:01.312Z,10.05
2023-03-23T23:25:28.989Z,10.30
2023-03-23T23:27:56.364Z,11.82
2023-03-23T23:30:23.204Z,12.85
2023-03-23T23:32:52.270Z,12.23
2023-03-23T23:35:20.288Z,11.32
2023-03-23T23:37:47.644Z,9.85
2023-03-23T23:40:15.374Z,10.88
2023-03-23T23:42:43.292Z,11.02
2023-03-23T23:45:13.236Z,14.25
2023-03-23T23:47:40.550Z,10.37
2023-03-23T23:50:08.621Z,10.70
2023-03-23T23:52:36.385Z,10.23
2023-03-23T23:55:04.288Z,11.75
2023-03-23T23:57:31.426Z,9.52
2023-03-23T23:59:58.278Z,9.23
